map of CSY home
CSY - Airport
Location
City:  Cheboksary, Chavashskaya, Russian Federation (Russia)
ICAO:UWKS
IATA:CSY

Details
Type:Airport (Aerodrome, Airfield)
Use:Public/Civil, International (customs port of entry)
Latitude:56°05'25"N (56.090278)
Longitude:47°20'50"E (47.347222)
Elevation:560 ft (171 m)
Variation:13.39°E (WMM2015 magnetic declination)
0.11° annual change
Runways:1
Longest:8241 × 161 ft (2512 × 49 m), paved

Time
Time Zone:UTC+3 (DST+4)

Weather
METAR:UWKS 162130Z 26005MPS CAVOK M01/M07 Q1037 R24/010060 NOSIG RMK QFE763

Related Locations
Nearby:
Farthest:SCGC: 10475 mi / 16858 km
Base Antarctica [Unión Glaciar Airport], MA, CL

Find:

   beyond  
but within

Other Information
Maps:
NOTAMs:
Links:
Sources:

  
  • flag of Russian Federation (Russia)
  • flag of Chavashskaya
  

Airport Diagram

Airport diagram for CSY

Airport diagram PDF from AIP of the Russian Federation

Sectional Chart

Flight Planning
at skyvector.com

Satellite Image

Google Maps Satellite view

Yandex Maps Satellite view


 

Copyright © 2004-2018 Karl L. Swartz. All rights reserved.
The Great Circle Mapper name and logo are trademarks of the Great Circle Mapper.
All other trademarks mentioned herein belong to their respective owners.
Please see credits for attibutions and further copyright information.

  Follow gcmap on Facebook Follow gcmap on Twitter Follow gcmap on Google+ GCmap on LinkedIn

hCard Microformat

Geo Microformat